createdAt,value
2023-01-19T07:06:25.839Z,30.25
2023-01-19T07:08:55.563Z,35.47
2023-01-19T07:11:31.020Z,25.35
2023-01-19T07:14:01.579Z,34.60
2023-01-19T07:16:30.185Z,34.92
2023-01-19T07:18:58.641Z,32.55
2023-01-19T07:21:29.355Z,43.08
2023-01-19T07:23:58.495Z,33.30
2023-01-19T07:26:28.095Z,30.15
2023-01-19T07:28:57.717Z,36.83
2023-01-19T07:31:26.445Z,38.22
2023-01-19T07:33:55.097Z,32.63
2023-01-19T07:36:23.501Z,29.40
2023-01-19T07:38:53.368Z,39.60
2023-01-19T07:41:21.826Z,35.17
2023-01-19T07:43:53.375Z,30.42
2023-01-19T07:46:24.225Z,37.70
2023-01-19T07:48:52.641Z,32.92
2023-01-19T07:51:21.063Z,33.78
2023-01-19T07:53:52.590Z,31.05
2023-01-19T07:56:22.110Z,33.65
2023-01-19T07:58:52.602Z,39.85
2023-01-19T08:01:21.261Z,38.63
2023-01-19T08:03:50.282Z,31.02
2023-01-19T08:06:22.151Z,38.42
2023-01-19T08:08:52.481Z,35.03
2023-01-19T08:11:23.799Z,38.25
2023-01-19T08:13:52.284Z,38.95
2023-01-19T08:16:20.711Z,30.38
2023-01-19T08:18:49.140Z,41.20
2023-01-19T08:21:17.751Z,37.58
2023-01-19T08:26:24.271Z,34.85
2023-01-19T08:28:52.725Z,29.10
2023-01-19T08:31:24.503Z,33.42
2023-01-19T08:33:53.459Z,45.60
2023-01-19T08:36:22.718Z,35.13
2023-01-19T08:38:51.187Z,30.40
2023-01-19T08:41:19.691Z,37.47
2023-01-19T08:43:49.657Z,33.92
2023-01-19T08:46:21.000Z,38.15
2023-01-19T08:48:50.410Z,31.58
2023-01-19T08:51:19.368Z,38.35
2023-01-19T08:53:47.814Z,38.08
2023-01-19T08:56:16.388Z,32.15
2023-01-19T08:58:53.617Z,37.05
2023-01-19T09:01:33.322Z,33.92
2023-01-19T09:04:01.983Z,34.58
2023-01-19T09:06:30.486Z,42.00
2023-01-19T09:08:58.940Z,35.53
2023-01-19T09:11:27.665Z,39.50
2023-01-19T09:16:25.027Z,36.97
2023-01-19T09:18:57.191Z,38.38
2023-01-19T09:21:25.642Z,36.45
2023-01-19T09:23:54.875Z,41.47
2023-01-19T09:26:23.869Z,37.88
2023-01-19T09:28:52.270Z,39.03
2023-01-19T09:31:20.862Z,37.08
2023-01-19T09:33:49.293Z,37.30
2023-01-19T09:36:19.183Z,37.22
2023-01-19T09:38:47.787Z,33.75
2023-01-19T09:41:22.441Z,38.90
2023-01-19T09:43:56.025Z,33.53
2023-01-19T09:46:31.298Z,28.95
2023-01-19T09:49:08.062Z,31.40
2023-01-19T09:51:41.226Z,32.28
2023-01-19T09:54:14.641Z,35.03
2023-01-19T09:56:43.804Z,35.55
2023-01-19T09:59:21.006Z,33.28
2023-01-19T10:02:20.668Z,38.75
2023-01-19T10:05:00.414Z,35.40
2023-01-19T10:07:53.328Z,37.53
2023-01-19T10:10:23.769Z,38.65
2023-01-19T10:13:22.855Z,33.65
2023-01-19T10:16:00.651Z,37.03
2023-01-19T10:18:39.003Z,41.92
2023-01-19T10:21:13.111Z,39.42
2023-01-19T10:23:52.320Z,36.42
2023-01-19T10:26:25.904Z,42.08
2023-01-19T10:28:59.981Z,42.03
2023-01-19T10:31:29.008Z,39.88
2023-01-19T10:33:57.507Z,37.58
2023-01-19T10:36:31.054Z,41.40
2023-01-19T10:39:04.429Z,45.20
2023-01-19T10:41:45.432Z,38.30
2023-01-19T10:44:23.847Z,43.03
2023-01-19T10:46:54.536Z,40.53
2023-01-19T10:49:27.787Z,36.08
2023-01-19T10:51:57.995Z,43.03
2023-01-19T10:54:32.813Z,47.10
2023-01-19T10:57:04.851Z,35.10
2023-01-19T10:59:36.295Z,36.50
2023-01-19T11:02:20.327Z,32.38
2023-01-19T11:04:51.372Z,43.38
2023-01-19T11:07:22.211Z,35.65
2023-01-19T11:10:22.168Z,40.25
2023-01-19T11:13:01.519Z,33.75
2023-01-19T11:15:34.999Z,34.20
2023-01-19T11:18:05.999Z,35.17
2023-01-19T11:20:44.245Z,44.60
2023-01-19T11:23:25.009Z,42.72
2023-01-19T11:25:57.851Z,37.20
2023-01-19T11:28:29.963Z,43.40
2023-01-19T11:31:00.706Z,38.25
2023-01-19T11:33:36.110Z,42.42
2023-01-19T11:36:07.627Z,39.08
2023-01-19T11:38:46.036Z,38.72
2023-01-19T11:41:20.859Z,48.70
2023-01-19T11:43:52.850Z,50.03
2023-01-19T11:46:23.919Z,47.08
2023-01-19T11:49:01.992Z,43.53
2023-01-19T11:51:37.503Z,39.50
2023-01-19T11:54:17.002Z,47.38
2023-01-19T11:56:52.178Z,50.15
2023-01-19T11:59:22.365Z,45.72
2023-01-19T12:01:55.801Z,50.00
2023-01-19T12:04:29.159Z,40.72
2023-01-19T12:07:00.462Z,45.70
2023-01-19T12:09:31.668Z,48.45
2023-01-19T12:12:05.734Z,41.22
2023-01-19T12:14:39.684Z,44.88
2023-01-19T12:17:17.556Z,45.35
2023-01-19T12:19:54.968Z,43.65
2023-01-19T12:22:28.629Z,48.23
2023-01-19T12:25:03.232Z,43.58
2023-01-19T12:27:41.278Z,49.92
2023-01-19T12:30:18.589Z,52.50
2023-01-19T12:32:47.145Z,47.47
2023-01-19T12:35:53.039Z,38.90
2023-01-19T12:38:53.679Z,44.33
2023-01-19T12:41:27.820Z,46.67
2023-01-19T12:44:25.377Z,46.80
2023-01-19T12:46:57.508Z,46.17
2023-01-19T12:49:35.935Z,52.83
2023-01-19T12:52:28.195Z,60.13
2023-01-19T12:55:01.755Z,56.25
2023-01-19T12:57:36.450Z,46.05
2023-01-19T13:00:09.342Z,46.78
2023-01-19T13:02:47.810Z,54.10
2023-01-19T13:08:16.955Z,42.75
2023-01-19T13:11:23.825Z,45.38
2023-01-19T13:14:39.501Z,49.00
2023-01-19T13:17:23.552Z,46.53
2023-01-19T13:19:59.646Z,50.70
2023-01-19T13:22:53.863Z,48.67
2023-01-19T13:25:33.732Z,42.97
2023-01-19T13:28:03.854Z,48.90
2023-01-19T13:30:36.695Z,52.13
2023-01-19T13:33:15.590Z,47.92
2023-01-19T13:35:52.839Z,49.45
2023-01-19T13:38:22.707Z,56.00
2023-01-19T13:40:52.223Z,53.13
2023-01-19T13:43:26.044Z,41.53
2023-01-19T13:45:57.327Z,40.92
2023-01-19T13:48:27.609Z,48.83
2023-01-19T13:51:01.025Z,50.90
2023-01-19T13:53:30.628Z,49.10
2023-01-19T13:56:08.483Z,47.50
2023-01-19T13:58:37.212Z,52.38
2023-01-19T14:01:05.691Z,41.70
2023-01-19T14:03:35.758Z,46.28
2023-01-19T14:06:04.523Z,46.90
2023-01-19T14:08:33.947Z,48.85
2023-01-19T14:11:03.596Z,45.33
2023-01-19T14:13:33.317Z,47.45
2023-01-19T14:16:07.016Z,53.83
2023-01-19T14:18:37.950Z,49.22
2023-01-19T14:21:09.039Z,49.85
2023-01-19T14:23:49.477Z,48.88
2023-01-19T14:26:40.300Z,43.72
2023-01-19T14:29:16.913Z,44.03
2023-01-19T14:31:46.636Z,52.47
2023-01-19T14:34:33.110Z,41.88
2023-01-19T14:37:25.433Z,36.35
2023-01-19T14:40:00.482Z,43.25
2023-01-19T14:42:32.532Z,44.67
2023-01-19T14:45:02.915Z,36.78
2023-01-19T14:47:37.077Z,39.38
2023-01-19T14:50:20.287Z,40.58
2023-01-19T14:52:55.960Z,31.45
2023-01-19T14:55:30.990Z,44.83
2023-01-19T14:57:59.661Z,31.60
2023-01-19T15:00:28.534Z,38.10
2023-01-19T15:02:57.161Z,39.38
2023-01-19T15:05:27.060Z,39.20
2023-01-19T15:07:55.654Z,36.95
2023-01-19T15:10:25.889Z,38.30
2023-01-19T15:12:56.151Z,31.52
2023-01-19T15:15:29.615Z,34.15
2023-01-19T15:17:58.960Z,33.75
2023-01-19T15:20:29.458Z,34.67
2023-01-19T15:22:57.958Z,34.28
2023-01-19T15:25:27.080Z,31.67
2023-01-19T15:27:59.969Z,28.58
2023-01-19T15:30:31.179Z,28.42
2023-01-19T15:33:00.190Z,27.67
2023-01-19T15:35:29.995Z,30.40
2023-01-19T15:37:58.668Z,27.50
2023-01-19T15:40:30.202Z,31.92
2023-01-19T15:42:58.772Z,38.40
2023-01-19T15:45:36.433Z,31.65
2023-01-19T15:48:06.838Z,28.73
2023-01-19T15:50:39.012Z,35.15
2023-01-19T15:53:08.076Z,32.08
2023-01-19T15:55:36.837Z,37.35
2023-01-19T16:00:34.954Z,35.90
2023-01-19T16:03:04.680Z,30.83
2023-01-19T16:05:42.464Z,31.92
2023-01-19T16:10:41.909Z,29.48
2023-01-19T16:13:11.056Z,26.27
2023-01-19T16:15:42.415Z,31.13
2023-01-19T16:18:11.099Z,37.90
2023-01-19T16:23:15.625Z,40.78
2023-01-19T16:25:45.962Z,33.88
2023-01-19T16:28:14.627Z,37.17
2023-01-19T16:30:43.070Z,37.90
2023-01-19T16:33:13.968Z,42.08
2023-01-19T16:35:42.711Z,40.83
2023-01-19T16:40:40.081Z,39.83
2023-01-19T16:43:10.072Z,42.78
2023-01-19T16:45:56.625Z,42.45
2023-01-19T16:48:25.499Z,46.83
2023-01-19T16:53:28.289Z,39.60
2023-01-19T16:55:57.026Z,50.38
2023-01-19T16:58:27.606Z,48.75
2023-01-19T17:00:56.353Z,45.03
2023-01-19T17:05:53.724Z,41.42
2023-01-19T17:08:22.500Z,42.97
2023-01-19T17:13:19.799Z,47.80
2023-01-19T17:15:50.452Z,43.58
2023-01-19T17:18:19.227Z,52.45
2023-01-19T17:20:50.485Z,47.50
2023-01-19T17:23:19.176Z,50.58
2023-01-19T17:28:22.122Z,46.67
2023-01-19T17:30:52.997Z,49.45
2023-01-19T17:33:23.009Z,59.10
2023-01-19T17:35:52.193Z,37.60
2023-01-19T17:38:20.893Z,51.40
2023-01-19T17:43:17.906Z,35.40
2023-01-19T17:45:46.665Z,53.22
2023-01-19T17:48:17.734Z,47.88
2023-01-19T17:50:46.558Z,57.55
2023-01-19T17:55:44.034Z,42.00
2023-01-19T17:58:13.257Z,54.38
2023-01-19T18:00:42.193Z,45.67
2023-01-19T18:03:11.193Z,49.10
2023-01-19T18:05:41.481Z,42.20
2023-01-19T18:08:11.968Z,53.95
2023-01-19T18:10:44.516Z,61.60
2023-01-19T18:13:16.576Z,65.63
2023-01-19T18:15:45.321Z,53.35
2023-01-19T18:23:14.506Z,48.38
2023-01-19T18:25:43.449Z,45.63
2023-01-19T18:28:12.259Z,51.50
2023-01-19T18:30:41.497Z,55.03
2023-01-19T18:33:10.227Z,53.17
2023-01-19T18:35:40.533Z,50.58
2023-01-19T18:38:11.679Z,43.13
2023-01-19T18:40:40.875Z,53.22
2023-01-19T18:43:09.655Z,51.00
2023-01-19T18:48:09.107Z,55.33
2023-01-19T18:50:39.782Z,49.42
2023-01-19T18:53:09.107Z,54.13
2023-01-19T18:55:39.449Z,57.28
2023-01-19T18:58:09.057Z,59.97
2023-01-19T19:00:38.316Z,60.30
2023-01-19T19:03:15.052Z,59.22
2023-01-19T19:05:44.047Z,53.17
2023-01-19T19:08:12.892Z,64.57
2023-01-19T19:13:14.399Z,52.42
2023-01-19T19:15:44.676Z,56.45
2023-01-19T19:18:14.239Z,48.33
2023-01-19T19:20:43.586Z,51.95
2023-01-19T19:23:12.929Z,49.83
2023-01-19T19:25:43.153Z,56.42
2023-01-19T19:28:12.115Z,58.42
2023-01-19T19:30:41.704Z,61.10
2023-01-19T19:33:10.459Z,53.80
2023-01-19T19:38:07.611Z,53.92
2023-01-19T19:40:36.397Z,57.75
2023-01-19T19:45:36.111Z,53.45
2023-01-19T19:48:05.187Z,68.18
2023-01-19T19:50:36.408Z,69.18
2023-01-19T19:53:05.825Z,65.50
2023-01-19T19:55:34.863Z,65.22
2023-01-19T19:58:03.785Z,64.40
2023-01-19T20:00:34.484Z,57.72
2023-01-19T20:03:03.783Z,60.78
2023-01-19T20:05:32.980Z,56.35
2023-01-19T20:08:02.579Z,64.85
2023-01-19T20:10:32.327Z,64.43
2023-01-19T20:13:01.410Z,60.90
2023-01-19T20:15:29.943Z,63.10
2023-01-19T20:18:00.239Z,61.60
2023-01-19T20:20:31.615Z,57.13
2023-01-19T20:23:00.931Z,54.47
2023-01-19T20:25:30.133Z,63.03
2023-01-19T20:27:59.500Z,55.72
2023-01-19T20:30:28.536Z,61.45
2023-01-19T20:32:57.283Z,59.95
2023-01-19T20:35:27.618Z,55.42
2023-01-19T20:37:56.625Z,69.28
2023-01-19T20:40:25.573Z,75.78
2023-01-19T20:42:54.532Z,66.72
2023-01-19T20:45:23.482Z,61.00
2023-01-19T20:47:52.681Z,60.22
2023-01-19T20:50:21.704Z,68.38
2023-01-19T20:52:51.832Z,66.25
2023-01-19T20:55:20.443Z,71.00
2023-01-19T20:57:49.365Z,72.95
2023-01-19T21:00:18.392Z,71.45
2023-01-19T21:02:47.612Z,60.40
2023-01-19T21:05:16.608Z,62.38
2023-01-19T21:07:45.567Z,62.83
2023-01-19T21:10:16.246Z,53.83
2023-01-19T21:12:48.669Z,60.70
2023-01-19T21:15:19.270Z,60.05
2023-01-19T21:17:49.739Z,53.65
2023-01-19T21:20:19.942Z,55.55
2023-01-19T21:22:53.115Z,54.85
2023-01-19T21:25:23.795Z,58.45
2023-01-19T21:27:55.032Z,45.85
2023-01-19T21:30:24.661Z,58.60
2023-01-19T21:32:53.546Z,56.08
2023-01-19T21:35:22.722Z,53.53
2023-01-19T21:37:51.812Z,47.22
2023-01-19T21:40:25.442Z,60.53
2023-01-19T21:42:54.512Z,62.05
2023-01-19T21:45:23.878Z,59.42
2023-01-19T21:47:52.668Z,53.50
2023-01-19T21:50:23.748Z,61.35
2023-01-19T21:52:53.146Z,60.25
2023-01-19T21:55:23.407Z,58.28
2023-01-19T21:57:53.605Z,59.05
2023-01-19T22:00:23.292Z,60.90
2023-01-19T22:03:03.421Z,51.95
2023-01-19T22:05:36.922Z,56.80
2023-01-19T22:08:11.149Z,64.38
2023-01-19T22:10:41.826Z,55.00
2023-01-19T22:13:10.674Z,54.10
2023-01-19T22:18:08.018Z,51.50
2023-01-19T22:20:37.106Z,55.63
2023-01-19T22:23:06.189Z,60.85
2023-01-19T22:25:36.073Z,57.17
2023-01-19T22:28:06.897Z,60.00
2023-01-19T22:30:39.295Z,50.15
2023-01-19T22:33:08.489Z,52.35
2023-01-19T22:35:37.708Z,55.50
2023-01-19T22:38:06.670Z,59.22
2023-01-19T22:40:36.822Z,52.65
2023-01-19T22:43:07.535Z,57.65
2023-01-19T22:45:43.441Z,55.42
2023-01-19T22:48:15.683Z,56.85
2023-01-19T22:50:45.403Z,59.92
2023-01-19T22:53:14.463Z,57.35
2023-01-19T22:55:43.437Z,52.83
2023-01-19T22:58:14.422Z,54.92
2023-01-19T23:00:43.743Z,53.40
2023-01-19T23:03:13.013Z,55.95
2023-01-19T23:05:42.149Z,54.28
2023-01-19T23:08:11.275Z,50.50
2023-01-19T23:10:40.744Z,57.83
2023-01-19T23:13:09.653Z,44.22
2023-01-19T23:15:40.347Z,53.13
2023-01-19T23:18:09.377Z,52.83
2023-01-19T23:20:38.397Z,51.67
2023-01-19T23:23:07.767Z,49.03
2023-01-19T23:25:36.502Z,53.03
2023-01-19T23:30:34.380Z,55.83
2023-01-19T23:33:04.918Z,49.38
2023-01-19T23:35:36.217Z,50.85
2023-01-19T23:38:05.062Z,45.65
2023-01-19T23:40:34.100Z,51.65
2023-01-19T23:43:02.881Z,52.55
2023-01-19T23:45:31.623Z,48.55
2023-01-19T23:48:00.607Z,46.38
2023-01-19T23:50:31.105Z,49.83
2023-01-19T23:53:00.336Z,49.13
2023-01-19T23:55:29.341Z,48.65
2023-01-19T23:57:58.135Z,47.47
